KWRL/WRL METAR and TAF weather

Enter ICAO airport designator
Station Type Date Time Source
KWRL METAR 2019/05/25 08:53 UTC NOAA

KWRL 250853Z AUTO 00000KT 10SM CLR 02/02 A2991 RMK AO2 SLP128 T00170017 53005


Station Type Date Time Source
KWRL Decoded METAR 2019/05/25 08:53 UTC NOAA

WORLAND MUNICIPAL AIRPORT, WY, United States (KWRL) 43-58N 107-57W 1271M
May 25, 2019 - 04:53 AM EDT / 2019.05.25 0853 UTC
Wind: Calm:0
Visibility: 10 mile(s):0
Sky conditions: clear
Temperature: 35.1 F (1.7 C)
Dew Point: 35.1 F (1.7 C)
Relative Humidity: 100%
Pressure (altimeter): 29.91 in. Hg (1012 hPa)
Pressure tendency: 0.01 inches (0.5 hPa) higher than three hours ago
ob: KWRL 250853Z AUTO 00000KT 10SM CLR 02/02 A2991 RMK AO2 SLP128 T00170017 53005
cycle: 9

Station Type Date Time Source
KWRL TAF 2019/05/25 06:22 UTC NOAA

TAF KWRL 250520Z 2506/2606 17007KT P6SM SCT080

Example: see airport list